sensor_id;sensor_type;location;lat;lon;timestamp;pressure;altitude;pressure_sealevel;temperature;humidity
78623;BME280;67943;54.412;9.502;2023-12-20T00:02:50;100662.88;;;5.37;98.23
78623;BME280;67943;54.412;9.502;2023-12-20T00:07:53;100661.09;;;5.50;97.53
78623;BME280;67943;54.412;9.502;2023-12-20T00:12:55;100655.03;;;5.48;97.87
78623;BME280;67943;54.412;9.502;2023-12-20T00:17:56;100641.13;;;5.38;98.24
78623;BME280;67943;54.412;9.502;2023-12-20T00:22:59;100635.06;;;5.39;98.27
78623;BME280;67943;54.412;9.502;2023-12-20T00:28:00;100613.28;;;5.45;98.51
78623;BME280;67943;54.412;9.502;2023-12-20T00:33:02;100618.44;;;5.63;98.76
78623;BME280;67943;54.412;9.502;2023-12-20T00:38:05;100615.84;;;5.51;98.02
78623;BME280;67943;54.412;9.502;2023-12-20T00:43:08;100595.84;;;5.56;97.55
78623;BME280;67943;54.412;9.502;2023-12-20T00:48:10;100613.22;;;5.63;97.67
78623;BME280;67943;54.412;9.502;2023-12-20T00:53:13;100618.38;;;5.75;95.91
78623;BME280;67943;54.412;9.502;2023-12-20T00:58:14;100609.59;;;5.85;95.31
78623;BME280;67943;54.412;9.502;2023-12-20T01:03:16;100593.03;;;6.00;93.63
78623;BME280;67943;54.412;9.502;2023-12-20T01:08:19;100595.69;;;5.92;90.96
78623;BME280;67943;54.412;9.502;2023-12-20T01:13:20;100579.97;;;6.01;89.92
78623;BME280;67943;54.412;9.502;2023-12-20T01:18:21;100586.94;;;5.99;91.23
78623;BME280;67943;54.412;9.502;2023-12-20T01:23:24;100579.97;;;5.98;93.41
78623;BME280;67943;54.412;9.502;2023-12-20T01:28:26;100570.44;;;5.91;94.93
78623;BME280;67943;54.412;9.502;2023-12-20T01:33:28;100566.97;;;5.91;96.65
78623;BME280;67943;54.412;9.502;2023-12-20T01:38:31;100556.53;;;5.82;98.57
78623;BME280;67943;54.412;9.502;2023-12-20T01:43:32;100540.00;;;5.80;99.09
78623;BME280;67943;54.412;9.502;2023-12-20T01:48:34;100538.28;;;5.80;99.29
78623;BME280;67943;54.412;9.502;2023-12-20T01:53:39;100525.19;;;5.89;98.50
78623;BME280;67943;54.412;9.502;2023-12-20T01:58:43;100534.75;;;5.87;98.84
78623;BME280;67943;54.412;9.502;2023-12-20T02:03:45;100537.38;;;5.86;98.31
78623;BME280;67943;54.412;9.502;2023-12-20T02:08:48;100537.22;;;6.08;97.37
78623;BME280;67943;54.412;9.502;2023-12-20T02:13:50;100523.25;;;6.17;96.46
78623;BME280;67943;54.412;9.502;2023-12-20T02:18:52;100516.28;;;6.16;96.35
78623;BME280;67943;54.412;9.502;2023-12-20T02:23:55;100501.41;;;6.26;96.79
78623;BME280;67943;54.412;9.502;2023-12-20T02:28:57;100492.66;;;6.30;96.67
78623;BME280;67943;54.412;9.502;2023-12-20T02:33:58;100480.50;;;6.26;94.86
78623;BME280;67943;54.412;9.502;2023-12-20T02:39:01;100483.06;;;6.35;92.82
78623;BME280;67943;54.412;9.502;2023-12-20T02:44:03;100465.69;;;6.29;92.27
78623;BME280;67943;54.412;9.502;2023-12-20T02:49:05;100470.81;;;6.35;92.45
78623;BME280;67943;54.412;9.502;2023-12-20T02:54:08;100452.78;;;6.09;95.05
78623;BME280;67943;54.412;9.502;2023-12-20T02:59:10;100448.34;;;6.19;95.82
78623;BME280;67943;54.412;9.502;2023-12-20T03:04:11;100443.09;;;6.22;95.60
78623;BME280;67943;54.412;9.502;2023-12-20T03:09:14;100436.09;;;6.27;95.08
78623;BME280;67943;54.412;9.502;2023-12-20T03:14:16;100440.41;;;6.30;95.71
78623;BME280;67943;54.412;9.502;2023-12-20T03:19:18;100433.34;;;6.38;94.34
78623;BME280;67943;54.412;9.502;2023-12-20T03:24:21;100410.63;;;6.46;92.64
78623;BME280;67943;54.412;9.502;2023-12-20T03:29:22;100419.38;;;6.42;92.07
78623;BME280;67943;54.412;9.502;2023-12-20T03:34:24;100401.88;;;6.50;90.99
78623;BME280;67943;54.412;9.502;2023-12-20T03:39:27;100396.72;;;6.41;91.19
78623;BME280;67943;54.412;9.502;2023-12-20T03:44:28;100384.41;;;6.54;90.76
78623;BME280;67943;54.412;9.502;2023-12-20T03:49:30;100386.28;;;6.41;91.81
78623;BME280;67943;54.412;9.502;2023-12-20T03:54:33;100374.91;;;6.45;91.80
78623;BME280;67943;54.412;9.502;2023-12-20T03:59:34;100372.25;;;6.50;91.96
78623;BME280;67943;54.412;9.502;2023-12-20T04:04:36;100370.56;;;6.44;93.16
78623;BME280;67943;54.412;9.502;2023-12-20T04:09:40;100365.22;;;6.55;93.69
78623;BME280;67943;54.412;9.502;2023-12-20T04:14:41;100354.03;;;6.43;93.94
78623;BME280;67943;54.412;9.502;2023-12-20T04:19:43;100358.25;;;6.55;93.53
78623;BME280;67943;54.412;9.502;2023-12-20T04:24:46;100354.81;;;6.50;93.60
78623;BME280;67943;54.412;9.502;2023-12-20T04:29:47;100346.84;;;6.62;93.46
78623;BME280;67943;54.412;9.502;2023-12-20T04:34:49;100345.97;;;6.63;93.37
78623;BME280;67943;54.412;9.502;2023-12-20T04:39:52;100336.25;;;6.71;93.39
78623;BME280;67943;54.412;9.502;2023-12-20T04:44:53;100343.44;;;6.56;94.37
78623;BME280;67943;54.412;9.502;2023-12-20T04:49:55;100341.63;;;6.62;93.47
78623;BME280;67943;54.412;9.502;2023-12-20T04:54:58;100330.19;;;6.66;90.42
78623;BME280;67943;54.412;9.502;2023-12-20T04:59:59;100330.16;;;6.69;86.83
78623;BME280;67943;54.412;9.502;2023-12-20T05:05:01;100315.31;;;6.71;85.08
78623;BME280;67943;54.412;9.502;2023-12-20T05:10:05;100309.16;;;6.75;85.12
78623;BME280;67943;54.412;9.502;2023-12-20T05:15:08;100313.72;;;6.63;86.21
78623;BME280;67943;54.412;9.502;2023-12-20T05:20:10;100315.53;;;6.56;88.95
78623;BME280;67943;54.412;9.502;2023-12-20T05:25:13;100309.44;;;6.57;90.31
78623;BME280;67943;54.412;9.502;2023-12-20T05:30:14;100306.66;;;6.68;91.26
78623;BME280;67943;54.412;9.502;2023-12-20T05:35:16;100302.28;;;6.68;92.83
78623;BME280;67943;54.412;9.502;2023-12-20T05:40:19;100283.22;;;6.63;94.21
78623;BME280;67943;54.412;9.502;2023-12-20T05:45:20;100280.50;;;6.69;94.85
78623;BME280;67943;54.412;9.502;2023-12-20T05:50:22;100271.91;;;6.63;94.65
78623;BME280;67943;54.412;9.502;2023-12-20T05:55:24;100272.53;;;6.78;93.78
78623;BME280;67943;54.412;9.502;2023-12-20T06:00:26;100283.09;;;6.69;92.46
78623;BME280;67943;54.412;9.502;2023-12-20T06:05:27;100268.28;;;6.70;92.24
78623;BME280;67943;54.412;9.502;2023-12-20T06:10:30;100267.34;;;6.75;92.58
78623;BME280;67943;54.412;9.502;2023-12-20T06:15:32;100269.00;;;6.83;92.66
78623;BME280;67943;54.412;9.502;2023-12-20T06:20:33;100248.78;;;6.34;93.90
78623;BME280;67943;54.412;9.502;2023-12-20T06:25:36;100247.09;;;6.28;93.61
78623;BME280;67943;54.412;9.502;2023-12-20T06:30:37;100239.41;;;6.16;95.18
78623;BME280;67943;54.412;9.502;2023-12-20T06:35:39;100230.69;;;6.17;94.54
78623;BME280;67943;54.412;9.502;2023-12-20T06:40:42;100215.84;;;6.21;94.72
78623;BME280;67943;54.412;9.502;2023-12-20T06:45:43;100211.56;;;6.15;94.82
78623;BME280;67943;54.412;9.502;2023-12-20T06:50:45;100203.66;;;6.20;94.73
78623;BME280;67943;54.412;9.502;2023-12-20T06:55:48;100191.44;;;6.22;93.49
78623;BME280;67943;54.412;9.502;2023-12-20T07:00:50;100181.19;;;6.06;94.22
78623;BME280;67943;54.412;9.502;2023-12-20T07:05:51;100181.97;;;6.13;94.34
78623;BME280;67943;54.412;9.502;2023-12-20T07:10:54;100167.13;;;6.17;94.61
78623;BME280;67943;54.412;9.502;2023-12-20T07:15:56;100165.41;;;6.16;95.37
78623;BME280;67943;54.412;9.502;2023-12-20T07:20:57;100154.88;;;6.22;95.48
78623;BME280;67943;54.412;9.502;2023-12-20T07:26:00;100155.66;;;6.28;95.15
78623;BME280;67943;54.412;9.502;2023-12-20T07:31:02;100153.03;;;6.30;96.11
78623;BME280;67943;54.412;9.502;2023-12-20T07:36:04;100127.47;;;6.49;96.35
78623;BME280;67943;54.412;9.502;2023-12-20T07:41:09;100145.84;;;6.44;97.22
78623;BME280;67943;54.412;9.502;2023-12-20T07:46:10;100128.44;;;6.43;98.18
78623;BME280;67943;54.412;9.502;2023-12-20T07:51:12;100119.66;;;6.47;98.78
78623;BME280;67943;54.412;9.502;2023-12-20T07:56:15;100136.09;;;6.55;97.33
78623;BME280;67943;54.412;9.502;2023-12-20T08:01:17;100148.38;;;6.49;96.10
78623;BME280;67943;54.412;9.502;2023-12-20T08:06:20;100179.44;;;6.08;94.31
78623;BME280;67943;54.412;9.502;2023-12-20T08:11:24;100184.00;;;5.93;92.45
78623;BME280;67943;54.412;9.502;2023-12-20T08:16:25;100163.44;;;5.62;92.55
78623;BME280;67943;54.412;9.502;2023-12-20T08:21:26;100124.28;;;5.64;91.14
78623;BME280;67943;54.412;9.502;2023-12-20T08:26:29;100136.72;;;5.43;91.75
78623;BME280;67943;54.412;9.502;2023-12-20T08:31:31;100128.00;;;5.45;92.04
78623;BME280;67943;54.412;9.502;2023-12-20T08:36:32;100156.63;;;5.49;92.07
78623;BME280;67943;54.412;9.502;2023-12-20T08:41:36;100166.19;;;5.49;92.93
78623;BME280;67943;54.412;9.502;2023-12-20T08:46:37;100164.50;;;5.48;92.45
78623;BME280;67943;54.412;9.502;2023-12-20T08:51:39;100159.22;;;5.51;92.00
78623;BME280;67943;54.412;9.502;2023-12-20T08:56:42;100180.09;;;5.51;92.14
78623;BME280;67943;54.412;9.502;2023-12-20T09:01:44;100190.50;;;5.54;92.37
78623;BME280;67943;54.412;9.502;2023-12-20T09:06:46;100202.81;;;5.42;92.77
78623;BME280;67943;54.412;9.502;2023-12-20T09:11:49;100199.34;;;5.40;93.17
78623;BME280;67943;54.412;9.502;2023-12-20T09:16:51;100190.41;;;5.63;92.99
78623;BME280;67943;54.412;9.502;2023-12-20T09:21:56;100211.94;;;5.80;91.82
78623;BME280;67943;54.412;9.502;2023-12-20T09:26:58;100216.44;;;5.69;91.43
78623;BME280;67943;54.412;9.502;2023-12-20T09:32:00;100212.19;;;5.59;92.55
78623;BME280;67943;54.412;9.502;2023-12-20T09:37:01;100225.31;;;5.51;93.27
78623;BME280;67943;54.412;9.502;2023-12-20T09:42:06;100227.16;;;5.45;94.20
78623;BME280;67943;54.412;9.502;2023-12-20T09:47:08;100226.00;;;5.70;94.98
78623;BME280;67943;54.412;9.502;2023-12-20T09:52:11;100217.00;;;6.00;93.27
78623;BME280;67943;54.412;9.502;2023-12-20T09:57:15;100216.75;;;6.18;92.84
78623;BME280;67943;54.412;9.502;2023-12-20T10:02:19;100223.44;;;6.37;92.86
78623;BME280;67943;54.412;9.502;2023-12-20T10:07:22;100232.50;;;6.73;92.79
78623;BME280;67943;54.412;9.502;2023-12-20T10:12:25;100211.72;;;7.21;89.17
78623;BME280;67943;54.412;9.502;2023-12-20T10:17:27;100217.84;;;7.19;87.00
78623;BME280;67943;54.412;9.502;2023-12-20T10:22:30;100204.75;;;7.66;83.52
78623;BME280;67943;54.412;9.502;2023-12-20T10:27:32;100210.47;;;7.40;80.69
78623;BME280;67943;54.412;9.502;2023-12-20T10:32:34;100215.50;;;6.45;84.92
78623;BME280;67943;54.412;9.502;2023-12-20T10:37:36;100204.63;;;6.11;84.87
78623;BME280;67943;54.412;9.502;2023-12-20T10:42:40;100198.41;;;6.21;84.55
78623;BME280;67943;54.412;9.502;2023-12-20T10:47:42;100197.38;;;7.85;78.85
78623;BME280;67943;54.412;9.502;2023-12-20T10:52:45;100191.75;;;9.19;72.79
78623;BME280;67943;54.412;9.502;2023-12-20T10:57:49;100183.69;;;10.49;67.73
78623;BME280;67943;54.412;9.502;2023-12-20T11:02:51;100196.50;;;10.60;64.76
78623;BME280;67943;54.412;9.502;2023-12-20T11:07:58;100187.16;;;8.93;69.64
78623;BME280;67943;54.412;9.502;2023-12-20T11:13:10;100196.97;;;8.46;72.14
78623;BME280;67943;54.412;9.502;2023-12-20T11:18:14;100187.16;;;8.56;72.27
78623;BME280;67943;54.412;9.502;2023-12-20T11:23:16;100190.97;;;9.80;67.20
78623;BME280;67943;54.412;9.502;2023-12-20T11:28:23;100190.81;;;11.00;62.06
78623;BME280;67943;54.412;9.502;2023-12-20T11:33:25;100176.41;;;10.85;60.96
78623;BME280;67943;54.412;9.502;2023-12-20T11:38:27;100176.41;;;9.36;63.91
78623;BME280;67943;54.412;9.502;2023-12-20T11:43:31;100179.28;;;8.56;66.91
78623;BME280;67943;54.412;9.502;2023-12-20T11:48:34;100184.31;;;9.67;62.88
78623;BME280;67943;54.412;9.502;2023-12-20T11:53:36;100184.56;;;11.80;58.17
78623;BME280;67943;54.412;9.502;2023-12-20T11:58:39;100161.63;;;12.72;53.72
78623;BME280;67943;54.412;9.502;2023-12-20T12:03:41;100159.50;;;13.44;50.19
78623;BME280;67943;54.412;9.502;2023-12-20T12:08:43;100178.38;;;12.04;52.83
78623;BME280;67943;54.412;9.502;2023-12-20T12:13:46;100166.03;;;10.53;58.32
78623;BME280;67943;54.412;9.502;2023-12-20T12:18:55;100163.03;;;9.45;62.86
78623;BME280;67943;54.412;9.502;2023-12-20T12:24:06;100166.81;;;10.82;60.62
78623;BME280;67943;54.412;9.502;2023-12-20T12:29:09;100171.03;;;12.12;55.40
78623;BME280;67943;54.412;9.502;2023-12-20T12:34:11;100158.56;;;13.03;52.17
78623;BME280;67943;54.412;9.502;2023-12-20T12:39:12;100175.06;;;13.71;50.48
78623;BME280;67943;54.412;9.502;2023-12-20T12:44:17;100176.81;;;13.51;48.92
78623;BME280;67943;54.412;9.502;2023-12-20T12:49:19;100177.66;;;13.32;48.72
78623;BME280;67943;54.412;9.502;2023-12-20T12:54:21;100171.75;;;12.39;50.11
78623;BME280;67943;54.412;9.502;2023-12-20T12:59:25;100174.56;;;11.88;51.15
78623;BME280;67943;54.412;9.502;2023-12-20T13:04:27;100175.19;;;12.63;49.62
78623;BME280;67943;54.412;9.502;2023-12-20T13:09:29;100163.63;;;12.22;50.00
78623;BME280;67943;54.412;9.502;2023-12-20T13:14:33;100169.03;;;11.21;52.93
78623;BME280;67943;54.412;9.502;2023-12-20T13:19:35;100183.50;;;10.55;55.67
78623;BME280;67943;54.412;9.502;2023-12-20T13:24:36;100171.22;;;9.66;58.58
78623;BME280;67943;54.412;9.502;2023-12-20T13:29:39;100179.59;;;8.79;62.47
78623;BME280;67943;54.412;9.502;2023-12-20T13:34:40;100192.22;;;8.24;64.56
78623;BME280;67943;54.412;9.502;2023-12-20T13:39:42;100180.66;;;7.92;65.01
78623;BME280;67943;54.412;9.502;2023-12-20T13:44:46;100202.94;;;7.70;66.14
78623;BME280;67943;54.412;9.502;2023-12-20T13:49:48;100196.91;;;7.20;68.09
78623;BME280;67943;54.412;9.502;2023-12-20T13:54:49;100213.72;;;7.04;69.78
78623;BME280;67943;54.412;9.502;2023-12-20T13:59:52;100218.22;;;6.96;69.66
78623;BME280;67943;54.412;9.502;2023-12-20T14:04:55;100224.59;;;6.78;70.51
78623;BME280;67943;54.412;9.502;2023-12-20T14:09:57;100206.28;;;6.80;70.88
78623;BME280;67943;54.412;9.502;2023-12-20T14:15:01;100212.31;;;6.83;71.74
78623;BME280;67943;54.412;9.502;2023-12-20T14:20:03;100211.03;;;6.55;73.83
78623;BME280;67943;54.412;9.502;2023-12-20T14:25:06;100219.03;;;6.41;75.35
78623;BME280;67943;54.412;9.502;2023-12-20T14:30:11;100229.03;;;6.10;77.30
78623;BME280;67943;54.412;9.502;2023-12-20T14:35:14;100214.34;;;6.03;77.98
78623;BME280;67943;54.412;9.502;2023-12-20T14:40:16;100210.97;;;5.93;79.13
78623;BME280;67943;54.412;9.502;2023-12-20T14:45:19;100220.53;;;5.94;79.50
78623;BME280;67943;54.412;9.502;2023-12-20T14:50:20;100204.91;;;5.91;79.98
78623;BME280;67943;54.412;9.502;2023-12-20T14:55:22;100199.84;;;5.76;80.29
78623;BME280;67943;54.412;9.502;2023-12-20T15:00:25;100191.19;;;5.72;81.14
78623;BME280;67943;54.412;9.502;2023-12-20T15:05:26;100206.00;;;5.69;81.85
78623;BME280;67943;54.412;9.502;2023-12-20T15:10:28;100216.47;;;5.66;83.00
78623;BME280;67943;54.412;9.502;2023-12-20T15:15:32;100213.66;;;5.83;82.72
78623;BME280;67943;54.412;9.502;2023-12-20T15:20:33;100216.16;;;5.96;82.62
78623;BME280;67943;54.412;9.502;2023-12-20T15:25:37;100213.69;;;5.80;82.47
78623;BME280;67943;54.412;9.502;2023-12-20T15:30:40;100236.34;;;5.77;81.69
78623;BME280;67943;54.412;9.502;2023-12-20T15:35:41;100230.31;;;5.74;81.13
78623;BME280;67943;54.412;9.502;2023-12-20T15:40:43;100225.13;;;5.71;81.28
78623;BME280;67943;54.412;9.502;2023-12-20T15:45:46;100226.66;;;5.90;80.18
78623;BME280;67943;54.412;9.502;2023-12-20T15:50:48;100221.44;;;5.87;80.25
78623;BME280;67943;54.412;9.502;2023-12-20T15:55:49;100217.06;;;5.94;80.14
78623;BME280;67943;54.412;9.502;2023-12-20T16:00:53;100212.72;;;5.91;80.12
78623;BME280;67943;54.412;9.502;2023-12-20T16:05:54;100219.69;;;5.92;78.55
78623;BME280;67943;54.412;9.502;2023-12-20T16:10:56;100230.13;;;5.94;77.98
78623;BME280;67943;54.412;9.502;2023-12-20T16:16:01;100231.78;;;5.99;77.11
78623;BME280;67943;54.412;9.502;2023-12-20T16:21:02;100231.59;;;6.15;76.89
78623;BME280;67943;54.412;9.502;2023-12-20T16:26:04;100233.53;;;6.00;77.33
78623;BME280;67943;54.412;9.502;2023-12-20T16:31:07;100220.56;;;5.88;78.82
78623;BME280;67943;54.412;9.502;2023-12-20T16:36:08;100222.41;;;5.78;79.89
78623;BME280;67943;54.412;9.502;2023-12-20T16:41:10;100219.03;;;5.72;80.77
78623;BME280;67943;54.412;9.502;2023-12-20T16:46:13;100220.03;;;5.59;81.61
78623;BME280;67943;54.412;9.502;2023-12-20T16:51:15;100213.03;;;5.62;82.69
78623;BME280;67943;54.412;9.502;2023-12-20T16:56:16;100211.22;;;5.69;82.87
78623;BME280;67943;54.412;9.502;2023-12-20T17:01:19;100217.47;;;5.54;83.72
78623;BME280;67943;54.412;9.502;2023-12-20T17:06:22;100214.00;;;5.52;83.74
78623;BME280;67943;54.412;9.502;2023-12-20T17:11:25;100213.16;;;5.49;84.29
78623;BME280;67943;54.412;9.502;2023-12-20T17:16:28;100189.53;;;5.64;84.06
78623;BME280;67943;54.412;9.502;2023-12-20T17:21:29;100195.56;;;5.69;84.32
78623;BME280;67943;54.412;9.502;2023-12-20T17:26:31;100199.03;;;5.69;85.91
78623;BME280;67943;54.412;9.502;2023-12-20T17:31:34;100185.91;;;5.77;87.14
78623;BME280;67943;54.412;9.502;2023-12-20T17:36:36;100187.66;;;5.76;88.29
78623;BME280;67943;54.412;9.502;2023-12-20T17:41:38;100180.75;;;5.72;88.73
78623;BME280;67943;54.412;9.502;2023-12-20T17:46:40;100181.72;;;5.62;89.91
78623;BME280;67943;54.412;9.502;2023-12-20T17:51:42;100179.94;;;5.66;89.57
78623;BME280;67943;54.412;9.502;2023-12-20T17:56:43;100183.53;;;5.56;90.85
78623;BME280;67943;54.412;9.502;2023-12-20T18:01:48;100189.44;;;5.71;91.67
78623;BME280;67943;54.412;9.502;2023-12-20T18:06:49;100169.28;;;5.83;92.44
78623;BME280;67943;54.412;9.502;2023-12-20T18:11:51;100157.25;;;5.72;93.25
78623;BME280;67943;54.412;9.502;2023-12-20T18:16:54;100157.47;;;5.53;92.76
78623;BME280;67943;54.412;9.502;2023-12-20T18:21:56;100147.16;;;5.42;90.97
78623;BME280;67943;54.412;9.502;2023-12-20T18:26:58;100139.47;;;5.30;89.84
78623;BME280;67943;54.412;9.502;2023-12-20T18:32:00;100125.47;;;5.38;89.49
78623;BME280;67943;54.412;9.502;2023-12-20T18:37:02;100122.84;;;5.38;89.65
78623;BME280;67943;54.412;9.502;2023-12-20T18:42:06;100117.66;;;5.35;89.94
78623;BME280;67943;54.412;9.502;2023-12-20T18:47:09;100095.84;;;5.42;90.21
78623;BME280;67943;54.412;9.502;2023-12-20T18:52:11;100095.75;;;5.49;91.35
78623;BME280;67943;54.412;9.502;2023-12-20T18:57:12;100085.44;;;5.41;92.20
78623;BME280;67943;54.412;9.502;2023-12-20T19:02:15;100079.38;;;5.37;93.66
78623;BME280;67943;54.412;9.502;2023-12-20T19:07:18;100085.50;;;5.33;94.85
78623;BME280;67943;54.412;9.502;2023-12-20T19:12:19;100062.91;;;5.32;95.60
78623;BME280;67943;54.412;9.502;2023-12-20T19:17:22;100050.81;;;5.27;96.56
78623;BME280;67943;54.412;9.502;2023-12-20T19:22:25;100045.50;;;5.34;96.40
78623;BME280;67943;54.412;9.502;2023-12-20T19:27:29;100025.53;;;5.33;95.48
78623;BME280;67943;54.412;9.502;2023-12-20T19:32:31;100010.66;;;5.40;95.05
78623;BME280;67943;54.412;9.502;2023-12-20T19:37:33;100010.69;;;5.37;94.69
78623;BME280;67943;54.412;9.502;2023-12-20T19:42:34;100000.28;;;5.35;94.70
78623;BME280;67943;54.412;9.502;2023-12-20T19:47:39;99983.72;;;5.39;95.07
78623;BME280;67943;54.412;9.502;2023-12-20T19:52:40;99976.19;;;5.18;96.00
78623;BME280;67943;54.412;9.502;2023-12-20T19:57:42;99971.44;;;5.48;95.15
78623;BME280;67943;54.412;9.502;2023-12-20T20:02:45;99967.78;;;5.58;94.13
78623;BME280;67943;54.412;9.502;2023-12-20T20:07:47;99946.91;;;5.59;94.62
78623;BME280;67943;54.412;9.502;2023-12-20T20:12:48;99944.31;;;5.56;94.41
78623;BME280;67943;54.412;9.502;2023-12-20T20:17:51;99934.63;;;5.66;94.30
78623;BME280;67943;54.412;9.502;2023-12-20T20:22:53;99929.31;;;5.72;94.52
78623;BME280;67943;54.412;9.502;2023-12-20T20:27:54;99912.50;;;5.90;94.51
78623;BME280;67943;54.412;9.502;2023-12-20T20:32:57;99903.09;;;5.78;95.89
78623;BME280;67943;54.412;9.502;2023-12-20T20:37:59;99892.59;;;5.81;96.97
78623;BME280;67943;54.412;9.502;2023-12-20T20:43:00;99880.31;;;5.88;98.54
78623;BME280;67943;54.412;9.502;2023-12-20T20:48:04;99870.59;;;5.99;98.58
78623;BME280;67943;54.412;9.502;2023-12-20T20:53:05;99871.41;;;6.02;98.96
78623;BME280;67943;54.412;9.502;2023-12-20T20:58:07;99861.94;;;5.97;100.00
78623;BME280;67943;54.412;9.502;2023-12-20T21:03:10;99859.31;;;5.97;100.00
78623;BME280;67943;54.412;9.502;2023-12-20T21:08:11;99869.88;;;5.89;100.00
78623;BME280;67943;54.412;9.502;2023-12-20T21:13:13;99858.41;;;5.99;100.00
78623;BME280;67943;54.412;9.502;2023-12-20T21:18:16;99851.34;;;6.04;100.00
78623;BME280;67943;54.412;9.502;2023-12-20T21:23:17;99840.03;;;6.04;100.00
78623;BME280;67943;54.412;9.502;2023-12-20T21:28:19;99842.66;;;6.04;100.00
78623;BME280;67943;54.412;9.502;2023-12-20T21:33:22;99838.41;;;5.98;100.00
78623;BME280;67943;54.412;9.502;2023-12-20T21:38:23;99826.28;;;5.94;100.00
78623;BME280;67943;54.412;9.502;2023-12-20T21:43:25;99824.41;;;6.02;100.00
78623;BME280;67943;54.412;9.502;2023-12-20T21:48:27;99823.31;;;6.13;100.00
78623;BME280;67943;54.412;9.502;2023-12-20T21:53:29;99810.13;;;6.20;100.00
78623;BME280;67943;54.412;9.502;2023-12-20T21:58:30;99824.16;;;6.15;100.00
78623;BME280;67943;54.412;9.502;2023-12-20T22:03:33;99815.50;;;6.11;100.00
78623;BME280;67943;54.412;9.502;2023-12-20T22:08:35;99804.97;;;6.16;100.00
78623;BME280;67943;54.412;9.502;2023-12-20T22:13:36;99799.72;;;6.17;100.00
78623;BME280;67943;54.412;9.502;2023-12-20T22:18:39;99790.94;;;6.21;100.00
78623;BME280;67943;54.412;9.502;2023-12-20T22:23:41;99780.47;;;6.23;100.00
78623;BME280;67943;54.412;9.502;2023-12-20T22:28:42;99748.28;;;6.22;100.00
78623;BME280;67943;54.412;9.502;2023-12-20T22:33:45;99725.59;;;6.24;100.00
78623;BME280;67943;54.412;9.502;2023-12-20T22:38:47;99723.00;;;6.23;100.00
78623;BME280;67943;54.412;9.502;2023-12-20T22:43:49;99711.69;;;6.22;100.00
78623;BME280;67943;54.412;9.502;2023-12-20T22:48:52;99693.25;;;6.30;100.00
78623;BME280;67943;54.412;9.502;2023-12-20T22:53:54;99691.31;;;6.38;100.00
78623;BME280;67943;54.412;9.502;2023-12-20T22:58:56;99691.34;;;6.36;100.00
78623;BME280;67943;54.412;9.502;2023-12-20T23:03:59;99683.44;;;6.39;100.00
78623;BME280;67943;54.412;9.502;2023-12-20T23:09:01;99692.06;;;6.43;99.48
78623;BME280;67943;54.412;9.502;2023-12-20T23:14:03;99686.97;;;6.37;99.98
78623;BME280;67943;54.412;9.502;2023-12-20T23:19:06;99679.31;;;6.31;100.00
78623;BME280;67943;54.412;9.502;2023-12-20T23:24:08;99678.56;;;6.24;100.00
78623;BME280;67943;54.412;9.502;2023-12-20T23:29:10;99672.44;;;6.27;100.00
78623;BME280;67943;54.412;9.502;2023-12-20T23:34:13;99661.09;;;6.28;100.00
78623;BME280;67943;54.412;9.502;2023-12-20T23:39:16;99663.56;;;6.34;100.00
78623;BME280;67943;54.412;9.502;2023-12-20T23:44:17;99653.97;;;6.34;100.00
78623;BME280;67943;54.412;9.502;2023-12-20T23:49:20;99642.44;;;6.43;99.83
78623;BME280;67943;54.412;9.502;2023-12-20T23:54:22;99640.66;;;6.45;99.52
78623;BME280;67943;54.412;9.502;2023-12-20T23:59:24;99621.53;;;6.43;100.00
